createdAt,value
2022-12-03T00:02:07.691Z,25.70
2022-12-03T00:04:35.135Z,14.88
2022-12-03T00:07:02.441Z,14.80
2022-12-03T00:09:29.741Z,15.00
2022-12-03T00:11:57.009Z,14.88
2022-12-03T00:14:24.285Z,15.18
2022-12-03T00:16:51.529Z,15.02
2022-12-03T00:19:18.836Z,14.18
2022-12-03T00:21:46.212Z,14.88
2022-12-03T00:24:13.468Z,14.20
2022-12-03T00:26:40.752Z,14.55
2022-12-03T00:29:07.988Z,14.38
2022-12-03T00:31:35.345Z,15.30
2022-12-03T00:34:02.704Z,15.73
2022-12-03T00:36:30.193Z,14.85
2022-12-03T00:38:57.548Z,15.48
2022-12-03T00:41:24.849Z,15.55
2022-12-03T00:43:52.162Z,16.27
2022-12-03T00:46:21.599Z,14.98
2022-12-03T00:48:49.222Z,15.20
2022-12-03T00:51:16.498Z,15.50
2022-12-03T00:53:43.798Z,14.95
2022-12-03T00:56:11.089Z,15.57
2022-12-03T00:58:38.372Z,15.35
2022-12-03T01:01:05.778Z,16.00
2022-12-03T01:03:33.129Z,16.52
2022-12-03T01:06:00.466Z,16.35
2022-12-03T01:08:27.724Z,15.50
2022-12-03T01:10:55.008Z,16.05
2022-12-03T01:13:22.334Z,15.52
2022-12-03T01:15:49.588Z,15.02
2022-12-03T01:18:16.906Z,14.27
2022-12-03T01:20:44.252Z,13.73
2022-12-03T01:23:13.638Z,14.73
2022-12-03T01:25:40.946Z,14.50
2022-12-03T01:28:08.236Z,14.38
2022-12-03T01:30:55.591Z,14.63
2022-12-03T01:33:22.904Z,15.48
2022-12-03T01:35:50.217Z,14.35
2022-12-03T01:38:17.627Z,14.68
2022-12-03T01:40:45.226Z,14.63
2022-12-03T01:43:12.490Z,16.33
2022-12-03T01:45:39.800Z,14.90
2022-12-03T01:48:07.193Z,15.52
2022-12-03T01:50:34.727Z,14.77
2022-12-03T01:53:04.529Z,14.95
2022-12-03T01:55:31.808Z,15.43
2022-12-03T01:58:00.569Z,15.10
2022-12-03T02:00:28.798Z,14.75
2022-12-03T02:02:58.534Z,15.13
2022-12-03T02:05:27.667Z,15.23
2022-12-03T02:07:55.634Z,18.50
2022-12-03T02:10:27.877Z,16.15
2022-12-03T02:13:05.722Z,16.33
2022-12-03T02:15:33.111Z,16.58
2022-12-03T02:18:00.673Z,15.50
2022-12-03T02:20:28.068Z,15.07
2022-12-03T02:23:14.304Z,15.00
2022-12-03T02:25:41.665Z,15.75
2022-12-03T02:28:10.981Z,14.32
2022-12-03T02:30:38.422Z,15.75
2022-12-03T02:33:05.810Z,17.25
2022-12-03T02:35:35.167Z,15.93
2022-12-03T02:38:16.701Z,15.32
2022-12-03T02:40:45.185Z,15.93
2022-12-03T02:43:14.757Z,16.02
2022-12-03T02:45:52.754Z,14.02
2022-12-03T02:48:27.878Z,15.18
2022-12-03T02:51:00.078Z,14.50
2022-12-03T02:53:28.561Z,15.40
2022-12-03T02:55:56.881Z,15.95
2022-12-03T02:58:25.014Z,15.85
2022-12-03T03:00:53.454Z,15.57
2022-12-03T03:03:21.655Z,16.10
2022-12-03T03:05:49.683Z,14.85
2022-12-03T03:08:17.666Z,14.65
2022-12-03T03:10:45.435Z,14.13
2022-12-03T03:13:14.960Z,14.85
2022-12-03T03:15:43.125Z,15.75
2022-12-03T03:18:11.173Z,15.93
2022-12-03T03:20:38.441Z,14.88
2022-12-03T03:23:11.795Z,15.77
2022-12-03T03:25:40.049Z,14.55
2022-12-03T03:28:07.962Z,14.45
2022-12-03T03:30:36.103Z,14.73
2022-12-03T03:33:03.602Z,16.25
2022-12-03T03:35:31.119Z,15.77
2022-12-03T03:37:58.798Z,16.00
2022-12-03T03:40:27.105Z,15.27
2022-12-03T03:42:55.408Z,15.65
2022-12-03T03:45:28.858Z,14.93
2022-12-03T03:47:58.158Z,15.02
2022-12-03T03:50:26.406Z,16.67
2022-12-03T03:52:53.811Z,16.33
2022-12-03T03:55:21.176Z,15.25
2022-12-03T03:57:48.703Z,15.82
2022-12-03T04:00:16.920Z,15.18
2022-12-03T04:02:44.305Z,15.20
2022-12-03T04:05:21.644Z,15.30
2022-12-03T04:07:49.017Z,16.80
2022-12-03T04:10:35.447Z,15.57
2022-12-03T04:13:02.908Z,15.65
2022-12-03T04:15:30.270Z,15.60
2022-12-03T04:18:16.283Z,15.23
2022-12-03T04:20:43.560Z,15.80
2022-12-03T04:23:10.904Z,15.75
2022-12-03T04:25:57.236Z,17.25
2022-12-03T04:29:03.196Z,15.35
2022-12-03T04:31:48.956Z,15.05
2022-12-03T04:34:34.758Z,15.45
2022-12-03T04:37:02.224Z,16.33
2022-12-03T04:39:29.698Z,14.85
2022-12-03T04:41:56.950Z,15.60
2022-12-03T04:44:33.319Z,14.80
2022-12-03T04:47:01.251Z,15.82
2022-12-03T04:49:28.587Z,15.85
2022-12-03T04:51:55.869Z,16.42
2022-12-03T04:54:23.192Z,15.43
2022-12-03T04:56:50.451Z,16.48
2022-12-03T04:59:17.769Z,15.75
2022-12-03T05:01:45.470Z,16.27
2022-12-03T05:04:13.363Z,15.00
2022-12-03T05:06:40.740Z,15.93
2022-12-03T05:09:08.114Z,14.95
2022-12-03T05:11:35.402Z,16.23
2022-12-03T05:14:02.777Z,15.70
2022-12-03T05:16:30.143Z,15.18
2022-12-03T05:18:57.500Z,15.93
2022-12-03T05:21:24.790Z,16.30
2022-12-03T05:23:52.152Z,15.70
2022-12-03T05:26:19.469Z,14.95
2022-12-03T05:28:46.739Z,15.50
2022-12-03T05:31:14.209Z,15.52
2022-12-03T05:33:44.453Z,15.50
2022-12-03T05:36:12.015Z,15.35
2022-12-03T05:38:39.252Z,16.25
2022-12-03T05:41:25.313Z,15.85
2022-12-03T05:43:52.626Z,14.18
2022-12-03T05:46:20.145Z,15.38
2022-12-03T05:48:47.525Z,14.38
2022-12-03T05:51:14.852Z,15.82
2022-12-03T05:53:42.085Z,16.17
2022-12-03T05:56:24.480Z,16.13
2022-12-03T05:58:51.810Z,16.88
2022-12-03T06:01:19.126Z,15.48
2022-12-03T06:03:46.662Z,15.43
2022-12-03T06:06:14.059Z,15.35
2022-12-03T06:08:41.338Z,15.10
2022-12-03T06:11:08.588Z,14.65
2022-12-03T06:13:35.938Z,15.60
2022-12-03T06:16:03.185Z,16.92
2022-12-03T06:18:30.540Z,16.55
2022-12-03T06:20:57.843Z,15.93
2022-12-03T06:23:25.121Z,17.38
2022-12-03T06:25:52.388Z,17.50
2022-12-03T06:28:19.709Z,17.52
2022-12-03T06:30:47.043Z,17.63
2022-12-03T06:33:14.454Z,18.38
2022-12-03T06:35:41.838Z,19.42
2022-12-03T06:38:09.113Z,18.88
2022-12-03T06:40:38.265Z,19.58
2022-12-03T06:43:05.567Z,18.05
2022-12-03T06:45:32.881Z,19.02
2022-12-03T06:48:00.168Z,19.35
2022-12-03T06:50:27.447Z,18.50
2022-12-03T06:52:54.754Z,19.50
2022-12-03T06:55:21.999Z,18.90
2022-12-03T06:57:50.004Z,18.63
2022-12-03T07:00:17.440Z,19.77
2022-12-03T07:02:44.792Z,18.10
2022-12-03T07:05:14.014Z,19.00
2022-12-03T07:07:41.348Z,19.02
2022-12-03T07:10:08.949Z,16.52
2022-12-03T07:12:36.245Z,18.58
2022-12-03T07:15:03.585Z,19.10
2022-12-03T07:17:30.879Z,18.50
2022-12-03T07:19:58.145Z,18.60
2022-12-03T07:22:25.706Z,17.88
2022-12-03T07:24:53.285Z,17.35
2022-12-03T07:27:20.802Z,17.90
2022-12-03T07:29:48.123Z,17.90
2022-12-03T07:32:15.401Z,17.15
2022-12-03T07:34:42.686Z,16.88
2022-12-03T07:37:10.034Z,16.58
2022-12-03T07:39:37.658Z,17.58
2022-12-03T07:42:05.365Z,16.55
2022-12-03T07:44:33.251Z,15.95
2022-12-03T07:47:00.649Z,16.88
2022-12-03T07:49:28.158Z,18.83
2022-12-03T07:51:56.816Z,16.17
2022-12-03T07:54:24.880Z,16.98
2022-12-03T07:56:56.551Z,15.95
2022-12-03T07:59:27.025Z,16.90
2022-12-03T08:01:54.373Z,16.05
2022-12-03T08:04:21.712Z,15.77
2022-12-03T08:06:49.252Z,16.02
2022-12-03T08:09:16.667Z,15.98
2022-12-03T08:11:45.187Z,16.15
2022-12-03T08:14:14.171Z,15.38
2022-12-03T08:16:42.393Z,16.40
2022-12-03T08:19:10.591Z,17.13
2022-12-03T08:21:37.969Z,17.17
2022-12-03T08:24:21.620Z,15.95
2022-12-03T08:26:50.101Z,15.32
2022-12-03T08:29:19.286Z,16.15
2022-12-03T08:31:52.246Z,16.73
2022-12-03T08:34:21.339Z,17.25
2022-12-03T08:36:50.591Z,17.60
2022-12-03T08:39:28.122Z,17.55
2022-12-03T08:42:15.912Z,16.80
2022-12-03T08:44:43.269Z,16.42
2022-12-03T08:47:10.703Z,17.65
2022-12-03T08:49:38.023Z,16.58
2022-12-03T08:52:20.095Z,17.70
2022-12-03T08:54:54.591Z,17.20
2022-12-03T08:57:22.974Z,16.52
2022-12-03T08:59:50.958Z,18.58
2022-12-03T09:02:23.208Z,18.67
2022-12-03T09:04:52.810Z,19.45
2022-12-03T09:07:20.436Z,17.98
2022-12-03T09:09:47.717Z,17.60
2022-12-03T09:12:15.037Z,18.33
2022-12-03T09:14:42.340Z,17.75
2022-12-03T09:17:09.795Z,17.83
2022-12-03T09:19:41.423Z,18.58
2022-12-03T09:22:13.374Z,18.15
2022-12-03T09:24:42.406Z,19.05
2022-12-03T09:27:09.763Z,19.40
2022-12-03T09:29:37.138Z,18.17
2022-12-03T09:32:04.618Z,18.15
2022-12-03T09:34:32.080Z,18.98
2022-12-03T09:36:59.334Z,18.58
2022-12-03T09:39:26.643Z,20.25
2022-12-03T09:41:54.045Z,19.98
2022-12-03T09:44:21.403Z,19.23
2022-12-03T09:46:49.041Z,18.80
2022-12-03T09:49:17.779Z,19.73
2022-12-03T09:51:45.876Z,18.23
2022-12-03T09:54:21.777Z,17.85
2022-12-03T09:56:49.088Z,19.25
2022-12-03T09:59:16.334Z,19.40
2022-12-03T10:01:43.777Z,17.40
2022-12-03T10:04:11.372Z,20.20
2022-12-03T10:06:43.929Z,18.35
2022-12-03T10:09:14.535Z,18.13
2022-12-03T10:11:41.867Z,18.15
2022-12-03T10:14:12.653Z,20.20
2022-12-03T10:16:40.836Z,18.17
2022-12-03T10:19:12.371Z,17.98
2022-12-03T10:21:39.916Z,17.92
2022-12-03T10:24:22.731Z,17.50
2022-12-03T10:26:51.013Z,17.40
2022-12-03T10:29:28.179Z,16.92
2022-12-03T10:32:01.929Z,16.48
2022-12-03T10:34:30.800Z,16.80
2022-12-03T10:37:12.228Z,16.27
2022-12-03T10:40:08.439Z,16.27
2022-12-03T10:42:44.550Z,16.10
2022-12-03T10:45:25.078Z,16.35
2022-12-03T10:48:06.154Z,15.52
2022-12-03T10:50:33.862Z,14.50
2022-12-03T10:53:01.227Z,14.18
2022-12-03T10:55:29.816Z,14.52
2022-12-03T10:57:57.981Z,15.77
2022-12-03T11:00:25.772Z,18.05
2022-12-03T11:02:56.744Z,16.90
2022-12-03T11:05:28.248Z,16.05
2022-12-03T11:07:56.042Z,17.27
2022-12-03T11:10:23.485Z,17.40
2022-12-03T11:13:23.296Z,18.50
2022-12-03T11:15:50.657Z,17.77
2022-12-03T11:18:36.746Z,16.67
2022-12-03T11:21:07.041Z,18.02
2022-12-03T11:23:46.643Z,17.88
2022-12-03T11:26:18.967Z,17.38
2022-12-03T11:28:47.042Z,18.13
2022-12-03T11:31:47.033Z,18.65
2022-12-03T11:34:23.073Z,17.40
2022-12-03T11:37:09.200Z,19.42
2022-12-03T11:39:59.457Z,18.10
2022-12-03T11:42:37.701Z,17.67
2022-12-03T11:45:14.046Z,17.88
2022-12-03T11:47:46.056Z,16.60
2022-12-03T11:50:42.523Z,17.20
2022-12-03T11:53:15.261Z,16.30
2022-12-03T11:55:46.830Z,17.20
2022-12-03T11:58:20.683Z,16.77
2022-12-03T12:00:52.618Z,18.30
2022-12-03T12:03:33.103Z,16.23
2022-12-03T12:06:04.001Z,17.17
2022-12-03T12:08:31.597Z,18.08
2022-12-03T12:10:59.286Z,15.93
2022-12-03T12:13:26.676Z,16.77
2022-12-03T12:15:54.401Z,16.33
2022-12-03T12:18:42.107Z,17.17
2022-12-03T12:21:28.026Z,16.45
2022-12-03T12:23:55.277Z,14.65
2022-12-03T12:26:22.731Z,14.68
2022-12-03T12:28:50.066Z,14.65
2022-12-03T12:31:17.492Z,14.27
2022-12-03T12:33:44.878Z,14.10
2022-12-03T12:36:12.460Z,13.68
2022-12-03T12:38:39.771Z,14.15
2022-12-03T12:41:08.263Z,12.02
2022-12-03T12:43:36.054Z,12.85
2022-12-03T12:46:45.316Z,11.77
2022-12-03T12:48:59.859Z,13.10
2022-12-03T12:51:27.399Z,11.75
2022-12-03T12:53:54.753Z,12.00
2022-12-03T12:56:26.508Z,12.48
2022-12-03T12:58:54.118Z,12.43
2022-12-03T13:01:32.352Z,12.43
2022-12-03T13:03:59.799Z,13.10
2022-12-03T13:06:28.333Z,13.00
2022-12-03T13:08:55.822Z,12.45
2022-12-03T13:11:26.263Z,12.90
2022-12-03T13:13:53.575Z,11.60
2022-12-03T13:16:27.283Z,13.10
2022-12-03T13:18:55.620Z,12.83
2022-12-03T13:21:24.282Z,11.82
2022-12-03T13:23:52.824Z,13.45
2022-12-03T13:26:32.764Z,13.18
2022-12-03T13:29:15.616Z,14.07
2022-12-03T13:31:47.929Z,14.38
2022-12-03T13:34:19.774Z,14.68
2022-12-03T13:36:52.029Z,15.00
2022-12-03T13:39:32.266Z,14.85
2022-12-03T13:42:22.398Z,14.38
2022-12-03T13:44:50.032Z,14.60
2022-12-03T13:47:20.089Z,14.55
2022-12-03T13:49:51.775Z,14.73
2022-12-03T13:52:21.260Z,14.60
2022-12-03T13:54:52.314Z,14.88
2022-12-03T13:57:19.925Z,14.60
2022-12-03T13:59:47.256Z,15.20
2022-12-03T14:02:14.655Z,16.98
2022-12-03T14:04:42.063Z,15.43
2022-12-03T14:07:09.528Z,16.88
2022-12-03T14:09:36.811Z,16.40
2022-12-03T14:12:22.815Z,16.63
2022-12-03T14:14:50.104Z,18.05
2022-12-03T14:17:17.597Z,16.58
2022-12-03T14:19:45.230Z,17.55
2022-12-03T14:22:12.579Z,17.30
2022-12-03T14:24:40.118Z,17.30
2022-12-03T14:27:07.513Z,17.55
2022-12-03T14:29:34.837Z,18.30
2022-12-03T14:32:02.297Z,18.05
2022-12-03T14:34:29.644Z,17.60
2022-12-03T14:36:56.920Z,18.02
2022-12-03T14:39:24.259Z,17.05
2022-12-03T14:42:10.172Z,18.92
2022-12-03T14:44:37.457Z,21.17
2022-12-03T14:47:04.813Z,22.50
2022-12-03T14:49:32.101Z,20.67
2022-12-03T14:51:59.849Z,19.52
2022-12-03T14:54:27.122Z,19.08
2022-12-03T14:56:54.627Z,21.98
2022-12-03T14:59:27.457Z,19.20
2022-12-03T15:01:55.874Z,18.90
2022-12-03T15:04:23.253Z,20.38
2022-12-03T15:06:50.614Z,19.42
2022-12-03T15:09:18.054Z,18.60
2022-12-03T15:11:46.614Z,18.20
2022-12-03T15:14:14.269Z,17.38
2022-12-03T15:16:41.684Z,17.55
2022-12-03T15:19:08.965Z,18.27
2022-12-03T15:21:36.364Z,16.98
2022-12-03T15:24:04.668Z,17.27
2022-12-03T15:26:31.883Z,16.75
2022-12-03T15:28:59.265Z,16.67
2022-12-03T15:31:26.597Z,16.25
2022-12-03T15:33:53.914Z,17.08
2022-12-03T15:36:21.253Z,15.27
2022-12-03T15:38:48.628Z,17.30
2022-12-03T15:41:24.071Z,16.63
2022-12-03T15:43:52.695Z,15.30
2022-12-03T15:46:20.509Z,15.73
2022-12-03T15:48:48.341Z,16.02
2022-12-03T15:51:15.573Z,17.13
2022-12-03T15:53:43.102Z,15.23
2022-12-03T15:56:12.322Z,15.38
2022-12-03T15:58:40.515Z,16.63
2022-12-03T16:01:09.021Z,15.38
2022-12-03T16:03:36.802Z,15.57
2022-12-03T16:06:04.477Z,15.75
2022-12-03T16:08:31.767Z,16.73
2022-12-03T16:10:59.111Z,17.42
2022-12-03T16:13:26.400Z,16.80
2022-12-03T16:15:53.681Z,16.20
2022-12-03T16:18:21.041Z,15.80
2022-12-03T16:20:48.315Z,16.08
2022-12-03T16:23:15.605Z,16.25
2022-12-03T16:25:42.864Z,15.57
2022-12-03T16:28:10.175Z,16.23
2022-12-03T16:30:37.576Z,17.00
2022-12-03T16:33:04.998Z,15.98
2022-12-03T16:35:32.341Z,18.10
2022-12-03T16:37:59.644Z,19.58
2022-12-03T16:40:26.884Z,19.45
2022-12-03T16:42:54.203Z,20.25
2022-12-03T16:45:21.477Z,21.52
2022-12-03T16:47:48.826Z,21.05
2022-12-03T16:50:24.365Z,23.20
2022-12-03T16:52:56.273Z,20.92
2022-12-03T16:55:23.589Z,22.48
2022-12-03T16:57:50.887Z,21.67
2022-12-03T17:00:18.319Z,21.40
2022-12-03T17:02:45.732Z,21.63
2022-12-03T17:05:13.068Z,21.42
2022-12-03T17:07:40.619Z,22.80
2022-12-03T17:10:08.776Z,21.23
2022-12-03T17:13:07.193Z,23.52
2022-12-03T17:15:23.437Z,22.03
2022-12-03T17:17:50.724Z,21.27
2022-12-03T17:20:18.593Z,21.70
2022-12-03T17:22:45.932Z,21.42
2022-12-03T17:25:13.251Z,22.80
2022-12-03T17:27:45.013Z,21.48
2022-12-03T17:30:13.420Z,21.48
2022-12-03T17:32:41.073Z,21.83
2022-12-03T17:35:08.840Z,21.10
2022-12-03T17:37:36.368Z,20.73
2022-12-03T17:40:05.545Z,20.45
2022-12-03T17:42:32.883Z,19.85
2022-12-03T17:45:00.174Z,21.67
2022-12-03T17:47:27.473Z,21.02
2022-12-03T17:49:56.058Z,20.80
2022-12-03T17:52:23.691Z,21.17
2022-12-03T17:57:38.266Z,21.85
2022-12-03T18:00:05.929Z,21.48
2022-12-03T18:02:39.463Z,20.40
2022-12-03T18:05:06.911Z,21.33
2022-12-03T18:07:34.257Z,23.10
2022-12-03T18:10:01.780Z,21.90
2022-12-03T18:12:29.220Z,22.23
2022-12-03T18:14:56.490Z,21.13
2022-12-03T18:17:24.177Z,21.33
2022-12-03T18:19:51.653Z,21.00
2022-12-03T18:22:19.461Z,22.52
2022-12-03T18:24:50.228Z,22.05
2022-12-03T18:27:19.108Z,22.55
2022-12-03T18:29:46.321Z,21.75
2022-12-03T18:32:27.818Z,22.38
2022-12-03T18:34:56.699Z,22.20
2022-12-03T18:37:26.620Z,22.67
2022-12-03T18:39:54.350Z,22.80
2022-12-03T18:42:23.601Z,21.27
2022-12-03T18:44:52.162Z,21.42
2022-12-03T18:47:23.722Z,22.02
2022-12-03T18:49:51.547Z,21.52
2022-12-03T18:52:21.103Z,22.15
2022-12-03T18:54:48.456Z,21.15
2022-12-03T18:57:15.861Z,23.08
2022-12-03T18:59:43.182Z,21.70
2022-12-03T19:02:38.559Z,22.73
2022-12-03T19:05:04.594Z,23.90
2022-12-03T19:07:31.958Z,22.67
2022-12-03T19:09:59.326Z,22.08
2022-12-03T19:12:26.691Z,22.63
2022-12-03T19:14:53.964Z,22.40
2022-12-03T19:17:21.683Z,22.52
2022-12-03T19:19:49.055Z,21.90
2022-12-03T19:22:16.382Z,20.83
2022-12-03T19:24:43.850Z,21.10
2022-12-03T19:27:11.347Z,20.23
2022-12-03T19:29:38.669Z,21.20
2022-12-03T19:32:06.095Z,20.48
2022-12-03T19:34:33.431Z,22.30
2022-12-03T19:37:00.741Z,20.65
2022-12-03T19:39:28.011Z,21.13
2022-12-03T19:41:55.313Z,22.08
2022-12-03T19:44:22.666Z,20.75
2022-12-03T19:46:50.571Z,20.17
2022-12-03T19:49:20.929Z,21.63
2022-12-03T19:51:48.532Z,21.30
2022-12-03T19:54:16.390Z,21.60
2022-12-03T19:56:44.299Z,21.85
2022-12-03T19:59:15.014Z,21.60
2022-12-03T20:01:43.435Z,21.40
2022-12-03T20:04:11.868Z,21.70
2022-12-03T20:06:39.415Z,21.75
2022-12-03T20:09:08.922Z,21.25
2022-12-03T20:11:36.291Z,20.30
2022-12-03T20:14:05.357Z,21.90
2022-12-03T20:16:33.008Z,22.02
2022-12-03T20:19:01.266Z,21.48
2022-12-03T20:21:30.479Z,20.40
2022-12-03T20:23:57.902Z,22.50
2022-12-03T20:26:25.563Z,20.42
2022-12-03T20:28:56.411Z,20.30
2022-12-03T20:31:24.702Z,20.17
2022-12-03T20:33:53.262Z,20.90
2022-12-03T20:36:22.690Z,21.58
2022-12-03T20:38:50.378Z,21.73
2022-12-03T20:41:18.696Z,20.88
2022-12-03T20:43:46.218Z,22.13
2022-12-03T20:46:13.605Z,20.37
2022-12-03T20:48:41.634Z,19.08
2022-12-03T20:51:10.347Z,21.00
2022-12-03T20:53:37.627Z,21.95
2022-12-03T20:56:05.710Z,22.05
2022-12-03T20:58:33.570Z,19.67
2022-12-03T21:01:15.566Z,20.10
2022-12-03T21:03:43.781Z,21.48
2022-12-03T21:06:11.476Z,20.25
2022-12-03T21:08:41.975Z,21.70
2022-12-03T21:11:10.848Z,21.30
2022-12-03T21:13:41.237Z,20.85
2022-12-03T21:16:09.401Z,20.75
2022-12-03T21:18:36.739Z,21.02
2022-12-03T21:21:04.278Z,20.85
2022-12-03T21:23:31.835Z,21.00
2022-12-03T21:26:03.166Z,21.95
2022-12-03T21:28:30.891Z,20.10
2022-12-03T21:31:05.531Z,19.92
2022-12-03T21:33:33.393Z,21.10
2022-12-03T21:36:01.043Z,21.48
2022-12-03T21:38:29.120Z,20.45
2022-12-03T21:40:57.275Z,21.38
2022-12-03T21:43:24.985Z,20.52
2022-12-03T21:45:52.477Z,21.95
2022-12-03T21:48:19.850Z,22.73
2022-12-03T21:50:47.541Z,22.73
2022-12-03T21:53:14.842Z,22.00
2022-12-03T21:55:42.199Z,20.52
2022-12-03T21:58:09.580Z,19.85
2022-12-03T22:00:37.150Z,22.70
2022-12-03T22:03:04.563Z,20.35
2022-12-03T22:05:31.954Z,21.00
2022-12-03T22:07:59.267Z,21.23
2022-12-03T22:10:26.570Z,20.13
2022-12-03T22:12:53.896Z,20.63
2022-12-03T22:15:21.145Z,20.23
2022-12-03T22:17:48.644Z,21.88
2022-12-03T22:20:15.970Z,21.85
2022-12-03T22:22:43.228Z,20.55
2022-12-03T22:25:10.571Z,20.70
2022-12-03T22:27:37.829Z,21.15
2022-12-03T22:30:06.297Z,20.45
2022-12-03T22:32:33.781Z,21.40
2022-12-03T22:35:01.065Z,19.75
2022-12-03T22:37:28.317Z,21.70
2022-12-03T22:39:55.761Z,21.52
2022-12-03T22:42:23.235Z,21.25
2022-12-03T22:44:50.502Z,21.70
2022-12-03T22:47:17.921Z,21.23
2022-12-03T22:49:45.164Z,21.83
2022-12-03T22:52:12.433Z,21.38
2022-12-03T22:54:40.053Z,20.42
2022-12-03T22:57:07.469Z,22.13
2022-12-03T22:59:34.774Z,21.20
2022-12-03T23:02:02.686Z,20.60
2022-12-03T23:04:30.061Z,20.98
2022-12-03T23:06:57.304Z,20.33
2022-12-03T23:09:24.677Z,21.08
2022-12-03T23:11:51.894Z,20.90
2022-12-03T23:14:19.231Z,21.07
2022-12-03T23:16:46.520Z,22.17
2022-12-03T23:19:14.692Z,20.60
2022-12-03T23:21:41.982Z,20.90
2022-12-03T23:24:09.249Z,21.13
2022-12-03T23:26:37.346Z,21.97
2022-12-03T23:29:06.083Z,21.25
2022-12-03T23:31:34.096Z,21.80
2022-12-03T23:34:01.748Z,21.77
2022-12-03T23:36:30.121Z,21.95
2022-12-03T23:38:57.441Z,21.48
2022-12-03T23:41:24.759Z,21.95
2022-12-03T23:43:52.382Z,20.48
2022-12-03T23:46:23.874Z,22.08
2022-12-03T23:48:51.583Z,21.33
2022-12-03T23:51:20.620Z,22.55
2022-12-03T23:53:48.306Z,21.83
2022-12-03T23:56:17.051Z,21.83
2022-12-03T23:58:44.935Z,23.15
